Terminal Aerodrome Forecast
Issued by NWS

Home | Current Version | Previous Version | Text Only | Print | Product List | Glossary On
Versions: 1 2 3 4 5 6 7 8 9 10 11 12 13 14 15 16 17 18
000
FTAK31 PAFA 042327
TAFAOT
TAF
PAOT 042327Z 0500/0524 28008KT 6SM BR OVC003
     FM050300 29006KT P6SM SCT003 BKN015 BKN100=

USA.gov is the U.S. government's official web portal to all federal, state and local government web resources and services.